createdAt,value
2019-06-27T00:02:30.999Z,11.50
2019-06-27T00:05:00.789Z,11.85
2019-06-27T00:07:30.655Z,11.38
2019-06-27T00:10:01.478Z,11.15
2019-06-27T00:12:33.675Z,10.40
2019-06-27T00:15:03.478Z,10.30
2019-06-27T00:17:33.304Z,10.75
2019-06-27T00:20:03.154Z,10.55
2019-06-27T00:22:32.905Z,10.28
2019-06-27T00:25:02.639Z,11.10
2019-06-27T00:27:32.493Z,10.78
2019-06-27T00:30:02.816Z,10.00
2019-06-27T00:32:32.623Z,9.55
2019-06-27T00:35:02.403Z,10.05
2019-06-27T00:37:32.244Z,10.15
2019-06-27T00:40:02.029Z,9.58
2019-06-27T00:42:31.747Z,9.40
2019-06-27T00:45:01.543Z,10.08
2019-06-27T00:47:34.378Z,9.10
2019-06-27T00:50:04.399Z,9.05
2019-06-27T00:52:34.172Z,9.30
2019-06-27T00:55:07.344Z,9.53
2019-06-27T00:57:37.256Z,9.38
2019-06-27T01:00:08.612Z,9.50
2019-06-27T01:02:40.698Z,8.68
2019-06-27T01:05:10.782Z,9.43
2019-06-27T01:07:47.115Z,9.38
2019-06-27T01:10:20.418Z,8.28
2019-06-27T01:12:50.180Z,7.17
2019-06-27T01:15:21.539Z,6.58
2019-06-27T01:17:54.602Z,7.22
2019-06-27T01:20:24.386Z,6.45
2019-06-27T01:22:54.156Z,6.90
2019-06-27T01:25:23.953Z,6.80
2019-06-27T01:27:54.775Z,5.90
2019-06-27T01:30:24.693Z,6.70
2019-06-27T01:32:54.556Z,6.47
2019-06-27T01:35:24.344Z,7.05
2019-06-27T01:37:54.127Z,6.72
2019-06-27T01:40:26.803Z,6.42
2019-06-27T01:42:56.668Z,6.42
2019-06-27T01:45:51.482Z,7.62
2019-06-27T01:48:24.288Z,6.83
2019-06-27T01:50:54.120Z,6.65
2019-06-27T01:53:30.366Z,7.15
2019-06-27T01:56:02.496Z,6.92
2019-06-27T01:58:38.221Z,7.42
2019-06-27T02:01:08.144Z,7.10
2019-06-27T02:03:37.944Z,6.90
2019-06-27T02:06:07.776Z,7.30
2019-06-27T02:08:37.576Z,7.25
2019-06-27T02:11:09.554Z,6.62
2019-06-27T02:13:39.259Z,7.15
2019-06-27T02:16:09.049Z,7.70
2019-06-27T02:18:38.837Z,7.08
2019-06-27T02:21:08.724Z,7.42
2019-06-27T02:23:38.460Z,7.80
2019-06-27T02:26:08.171Z,7.40
2019-06-27T02:28:37.984Z,7.58
2019-06-27T02:31:07.697Z,7.37
2019-06-27T02:33:37.428Z,7.12
2019-06-27T02:36:07.229Z,7.45
2019-06-27T02:38:37.040Z,7.47
2019-06-27T02:41:06.952Z,7.28
2019-06-27T02:43:36.887Z,7.37
2019-06-27T02:46:06.627Z,7.42
2019-06-27T02:48:36.379Z,7.72
2019-06-27T02:51:06.053Z,7.42
2019-06-27T02:53:35.892Z,6.95
2019-06-27T02:56:05.701Z,8.13
2019-06-27T02:58:35.445Z,7.47
2019-06-27T03:01:06.428Z,7.42
2019-06-27T03:03:36.245Z,7.30
2019-06-27T03:06:06.149Z,7.67
2019-06-27T03:08:35.947Z,7.65
2019-06-27T03:11:05.655Z,7.72
2019-06-27T03:13:35.420Z,7.28
2019-06-27T03:16:05.833Z,8.38
2019-06-27T03:18:35.537Z,7.55
2019-06-27T03:21:08.306Z,8.20
2019-06-27T03:23:38.116Z,7.70
2019-06-27T03:26:07.891Z,7.15
2019-06-27T03:28:51.562Z,7.47
2019-06-27T03:31:09.127Z,8.00
2019-06-27T03:33:38.920Z,7.65
2019-06-27T03:36:09.865Z,8.10
2019-06-27T03:38:39.910Z,7.90
2019-06-27T03:41:09.799Z,7.20
2019-06-27T03:43:39.613Z,7.92
2019-06-27T03:46:09.419Z,7.67
2019-06-27T03:48:39.174Z,7.60
2019-06-27T03:51:08.956Z,7.92
2019-06-27T03:53:38.743Z,7.75
2019-06-27T03:56:08.589Z,8.00
2019-06-27T03:58:38.428Z,8.35
2019-06-27T04:01:08.153Z,8.00
2019-06-27T04:03:42.689Z,8.35
2019-06-27T04:06:09.579Z,8.53
2019-06-27T04:08:39.354Z,8.40
2019-06-27T04:11:09.290Z,8.78
2019-06-27T04:13:39.061Z,8.35
2019-06-27T04:16:08.847Z,7.80
2019-06-27T04:18:41.984Z,7.95
2019-06-27T04:21:12.431Z,8.40
2019-06-27T04:23:42.232Z,8.63
2019-06-27T04:26:13.056Z,7.87
2019-06-27T04:28:42.883Z,8.53
2019-06-27T04:31:13.820Z,7.92
2019-06-27T04:33:43.564Z,8.78
2019-06-27T04:36:13.361Z,8.93
2019-06-27T04:38:43.076Z,8.38
2019-06-27T04:41:12.760Z,8.33
2019-06-27T04:43:44.174Z,9.00
2019-06-27T04:46:16.022Z,8.03
2019-06-27T04:48:45.829Z,8.75
2019-06-27T04:51:15.639Z,8.03
2019-06-27T04:53:53.971Z,8.63
2019-06-27T04:56:19.467Z,8.70
2019-06-27T04:58:49.265Z,8.43
2019-06-27T05:01:19.107Z,9.48
2019-06-27T05:03:48.934Z,8.95
2019-06-27T05:06:18.662Z,9.53
2019-06-27T05:08:48.473Z,10.05
2019-06-27T05:11:18.164Z,8.88
2019-06-27T05:13:47.870Z,9.73
2019-06-27T05:16:17.637Z,9.68
2019-06-27T05:19:14.006Z,9.05
2019-06-27T05:21:43.805Z,9.88
2019-06-27T05:24:13.680Z,9.73
2019-06-27T05:26:43.491Z,9.35
2019-06-27T05:29:14.590Z,8.83
2019-06-27T05:31:44.399Z,9.23
2019-06-27T05:34:14.163Z,9.15
2019-06-27T05:36:44.030Z,9.50
2019-06-27T05:39:13.778Z,10.20
2019-06-27T05:41:43.499Z,9.70
2019-06-27T05:44:13.187Z,9.90
2019-06-27T05:46:42.971Z,9.53
2019-06-27T05:49:12.766Z,9.83
2019-06-27T05:51:42.499Z,9.33
2019-06-27T05:54:12.530Z,9.73
2019-06-27T05:56:42.388Z,9.35
2019-06-27T05:59:12.168Z,9.70
2019-06-27T06:01:42.174Z,9.65
2019-06-27T06:04:11.947Z,9.35
2019-06-27T06:06:44.692Z,9.50
2019-06-27T06:09:15.514Z,9.93
2019-06-27T06:11:45.342Z,9.73
2019-06-27T06:14:15.289Z,10.30
2019-06-27T06:16:45.109Z,9.85
2019-06-27T06:19:17.610Z,9.40
2019-06-27T06:21:47.548Z,9.85
2019-06-27T06:24:17.688Z,9.55
2019-06-27T06:26:47.660Z,9.75
2019-06-27T06:29:17.519Z,10.45
2019-06-27T06:31:49.488Z,9.75
2019-06-27T06:34:19.028Z,9.93
2019-06-27T06:36:48.906Z,10.32
2019-06-27T06:39:19.038Z,9.98
2019-06-27T06:41:48.934Z,10.35
2019-06-27T06:44:18.868Z,10.15
2019-06-27T06:46:48.815Z,9.90
2019-06-27T06:49:18.736Z,10.05
2019-06-27T06:51:48.618Z,10.18
2019-06-27T06:54:18.547Z,10.35
2019-06-27T06:56:48.489Z,10.85
2019-06-27T06:59:18.434Z,10.20
2019-06-27T07:01:48.388Z,9.95
2019-06-27T07:04:18.312Z,10.63
2019-06-27T07:06:48.379Z,11.10
2019-06-27T07:09:18.267Z,9.63
2019-06-27T07:11:48.061Z,10.68
2019-06-27T07:14:17.924Z,10.05
2019-06-27T07:16:50.242Z,9.90
2019-06-27T07:19:20.207Z,9.60
2019-06-27T07:21:50.983Z,8.88
2019-06-27T07:24:21.025Z,9.73
2019-06-27T07:26:50.960Z,9.98
2019-06-27T07:29:20.902Z,8.90
2019-06-27T07:31:50.735Z,9.08
2019-06-27T07:34:20.734Z,9.40
2019-06-27T07:36:50.723Z,9.30
2019-06-27T07:39:20.688Z,9.33
2019-06-27T07:41:50.609Z,9.10
2019-06-27T07:44:20.745Z,9.55
2019-06-27T07:46:50.699Z,9.55
2019-06-27T07:49:20.592Z,10.00
2019-06-27T07:51:50.439Z,10.15
2019-06-27T07:54:20.383Z,9.40
2019-06-27T07:56:50.440Z,9.63
2019-06-27T07:59:20.387Z,10.32
2019-06-27T08:01:50.382Z,9.75
2019-06-27T08:04:20.182Z,10.40
2019-06-27T08:06:50.159Z,10.35
2019-06-27T08:09:20.155Z,10.13
2019-06-27T08:11:49.979Z,10.35
2019-06-27T08:14:21.097Z,10.78
2019-06-27T08:16:52.492Z,10.28
2019-06-27T08:19:22.405Z,10.08
2019-06-27T08:21:52.504Z,9.98
2019-06-27T08:24:22.425Z,9.45
2019-06-27T08:26:52.329Z,9.38
2019-06-27T08:29:22.259Z,9.08
2019-06-27T08:31:52.314Z,9.53
2019-06-27T08:34:22.308Z,10.05
2019-06-27T08:36:52.293Z,9.53
2019-06-27T08:39:22.277Z,9.43
2019-06-27T08:41:52.136Z,9.13
2019-06-27T08:44:22.124Z,8.88
2019-06-27T08:46:52.040Z,9.63
2019-06-27T08:49:21.975Z,10.20
2019-06-27T08:51:51.838Z,9.08
2019-06-27T08:54:21.737Z,9.40
2019-06-27T08:56:51.630Z,9.00
2019-06-27T08:59:21.558Z,9.48
2019-06-27T09:02:07.013Z,9.65
2019-06-27T09:04:23.131Z,9.43
2019-06-27T09:06:53.373Z,9.70
2019-06-27T09:09:23.286Z,9.70
2019-06-27T09:11:53.232Z,9.70
2019-06-27T09:14:23.160Z,9.85
2019-06-27T09:16:53.012Z,10.18
2019-06-27T09:19:22.929Z,9.18
2019-06-27T09:21:52.892Z,9.68
2019-06-27T09:24:22.893Z,9.35
2019-06-27T09:26:53.302Z,9.83
2019-06-27T09:29:23.315Z,9.50
2019-06-27T09:31:53.288Z,9.18
2019-06-27T09:34:23.286Z,10.10
2019-06-27T09:36:53.238Z,9.73
2019-06-27T09:39:26.863Z,9.15
2019-06-27T09:41:57.321Z,9.43
2019-06-27T09:44:27.233Z,9.40
2019-06-27T09:46:57.205Z,9.10
2019-06-27T09:49:27.382Z,9.03
2019-06-27T09:51:57.536Z,8.95
2019-06-27T09:54:27.553Z,8.85
2019-06-27T09:56:57.501Z,8.93
2019-06-27T09:59:27.480Z,9.68
2019-06-27T10:01:57.475Z,9.13
2019-06-27T10:04:27.505Z,9.68
2019-06-27T10:06:57.387Z,10.35
2019-06-27T10:09:27.381Z,9.85
2019-06-27T10:11:57.380Z,10.35
2019-06-27T10:14:28.141Z,9.53
2019-06-27T10:16:58.825Z,9.20
2019-06-27T10:19:28.847Z,8.98
2019-06-27T10:21:59.168Z,9.05
2019-06-27T10:24:29.335Z,9.23
2019-06-27T10:26:59.153Z,9.00
2019-06-27T10:29:30.372Z,8.60
2019-06-27T10:32:04.516Z,9.08
2019-06-27T10:34:33.056Z,8.75
2019-06-27T10:37:02.992Z,8.25
2019-06-27T10:39:32.913Z,8.08
2019-06-27T10:42:02.857Z,8.75
2019-06-27T10:44:32.772Z,8.28
2019-06-27T10:47:02.648Z,7.87
2019-06-27T10:49:33.331Z,9.68
2019-06-27T10:52:07.680Z,8.83
2019-06-27T10:54:37.607Z,9.78
2019-06-27T10:57:07.770Z,11.60
2019-06-27T10:59:40.218Z,16.75
2019-06-27T11:02:10.525Z,8.45
2019-06-27T11:04:40.672Z,8.53
2019-06-27T11:07:10.587Z,8.20
2019-06-27T11:09:40.403Z,7.97
2019-06-27T11:12:10.500Z,8.70
2019-06-27T11:14:40.722Z,9.00
2019-06-27T11:17:10.758Z,8.15
2019-06-27T11:19:52.023Z,8.73
2019-06-27T11:22:12.268Z,8.50
2019-06-27T11:24:42.816Z,8.28
2019-06-27T11:27:12.703Z,8.25
2019-06-27T11:29:42.694Z,8.70
2019-06-27T11:32:14.738Z,8.00
2019-06-27T11:34:44.741Z,7.75
2019-06-27T11:37:14.783Z,8.73
2019-06-27T11:39:44.711Z,7.87
2019-06-27T11:42:16.854Z,8.23
2019-06-27T11:44:46.956Z,8.73
2019-06-27T11:47:17.272Z,8.05
2019-06-27T11:49:50.557Z,8.13
2019-06-27T11:52:20.558Z,8.38
2019-06-27T11:54:50.608Z,8.60
2019-06-27T11:57:20.743Z,8.05
2019-06-27T11:59:50.875Z,8.63
2019-06-27T12:02:21.262Z,9.48
2019-06-27T12:04:51.332Z,9.25
2019-06-27T12:07:21.314Z,8.55
2019-06-27T12:09:51.436Z,7.90
2019-06-27T12:12:24.191Z,8.38
2019-06-27T12:14:54.193Z,7.83
2019-06-27T12:17:27.262Z,9.33
2019-06-27T12:19:58.586Z,7.65
2019-06-27T12:22:28.750Z,8.68
2019-06-27T12:24:59.467Z,8.03
2019-06-27T12:27:29.375Z,8.78
2019-06-27T12:29:59.307Z,9.30
2019-06-27T12:32:29.222Z,9.03
2019-06-27T12:34:59.126Z,9.13
2019-06-27T12:37:29.124Z,8.50
2019-06-27T12:39:59.165Z,9.28
2019-06-27T12:42:32.646Z,8.95
2019-06-27T12:45:00.847Z,9.30
2019-06-27T12:47:30.880Z,9.33
2019-06-27T12:50:02.995Z,10.05
2019-06-27T12:52:32.524Z,10.23
2019-06-27T12:55:02.470Z,9.50
2019-06-27T12:57:32.431Z,10.05
2019-06-27T13:00:03.796Z,9.68
2019-06-27T13:02:33.904Z,9.83
2019-06-27T13:05:05.035Z,9.45
2019-06-27T13:07:38.840Z,9.43
2019-06-27T13:10:10.154Z,10.40
2019-06-27T13:12:42.680Z,9.58
2019-06-27T13:15:12.879Z,9.98
2019-06-27T13:17:44.153Z,9.93
2019-06-27T13:20:15.483Z,9.70
2019-06-27T13:22:45.453Z,9.15
2019-06-27T13:25:15.629Z,9.00
2019-06-27T13:27:45.679Z,9.35
2019-06-27T13:30:15.695Z,9.03
2019-06-27T13:32:45.695Z,9.43
2019-06-27T13:35:15.722Z,8.48
2019-06-27T13:37:45.713Z,9.40
2019-06-27T13:40:16.541Z,9.13
2019-06-27T13:42:46.513Z,8.90
2019-06-27T13:45:16.604Z,9.23
2019-06-27T13:47:46.560Z,9.40
2019-06-27T13:50:16.891Z,9.53
2019-06-27T13:52:46.892Z,9.78
2019-06-27T13:55:17.308Z,8.60
2019-06-27T13:57:47.359Z,9.43
2019-06-27T14:00:18.773Z,9.08
2019-06-27T14:02:48.979Z,10.00
2019-06-27T14:05:18.840Z,9.85
2019-06-27T14:07:48.811Z,9.43
2019-06-27T14:10:18.687Z,9.85
2019-06-27T14:12:48.639Z,10.58
2019-06-27T14:15:18.802Z,10.63
2019-06-27T14:17:48.764Z,10.20
2019-06-27T14:20:18.868Z,8.90
2019-06-27T14:22:48.851Z,8.18
2019-06-27T14:25:18.807Z,8.03
2019-06-27T14:27:48.885Z,8.35
2019-06-27T14:30:20.387Z,8.18
2019-06-27T14:32:53.323Z,8.15
2019-06-27T14:35:21.842Z,8.80
2019-06-27T14:37:51.859Z,8.45
2019-06-27T14:40:21.985Z,8.18
2019-06-27T14:42:52.166Z,8.33
2019-06-27T14:45:22.192Z,8.45
2019-06-27T14:47:52.218Z,8.45
2019-06-27T14:50:22.230Z,8.48
2019-06-27T14:52:52.249Z,8.08
2019-06-27T14:55:32.240Z,8.55
2019-06-27T14:58:02.173Z,8.38
2019-06-27T15:00:32.660Z,8.58
2019-06-27T15:03:02.748Z,8.40
2019-06-27T15:05:33.719Z,8.65
2019-06-27T15:08:03.870Z,7.97
2019-06-27T15:10:33.838Z,7.70
2019-06-27T15:13:03.693Z,8.05
2019-06-27T15:15:33.512Z,8.28
2019-06-27T15:18:03.394Z,8.08
2019-06-27T15:20:34.689Z,7.20
2019-06-27T15:23:04.635Z,7.72
2019-06-27T15:25:34.542Z,7.35
2019-06-27T15:28:04.538Z,8.00
2019-06-27T15:30:34.730Z,7.80
2019-06-27T15:33:04.838Z,7.80
2019-06-27T15:35:50.930Z,7.83
2019-06-27T15:38:07.342Z,7.40
2019-06-27T15:40:37.192Z,6.80
2019-06-27T15:43:06.997Z,6.60
2019-06-27T15:45:37.067Z,6.53
2019-06-27T15:48:06.834Z,6.37
2019-06-27T15:50:37.694Z,5.85
2019-06-27T15:53:08.116Z,6.12
2019-06-27T15:55:38.091Z,6.87
2019-06-27T15:58:38.261Z,6.62
2019-06-27T16:01:54.417Z,6.33
2019-06-27T16:04:54.752Z,6.45
2019-06-27T16:13:44.275Z,5.10
2019-06-27T16:16:14.072Z,5.30
2019-06-27T16:18:44.773Z,4.85
2019-06-27T16:21:14.998Z,4.30
2019-06-27T16:23:47.356Z,9.25
2019-06-27T16:26:27.666Z,4.03
2019-06-27T16:29:20.637Z,2.70
2019-06-27T16:31:53.908Z,2.22
2019-06-27T16:34:31.340Z,2.20
2019-06-27T16:37:02.067Z,2.42
2019-06-27T16:39:32.184Z,2.17
2019-06-27T16:42:02.070Z,2.12
2019-06-27T16:44:31.916Z,2.40
2019-06-27T16:47:01.759Z,3.55
2019-06-27T16:49:31.702Z,4.05
2019-06-27T16:52:01.692Z,3.25
2019-06-27T16:54:31.534Z,3.15
2019-06-27T16:57:01.408Z,2.98
2019-06-27T16:59:31.225Z,3.17
2019-06-27T17:02:01.068Z,2.62
2019-06-27T17:04:30.958Z,2.22
2019-06-27T17:07:00.913Z,2.25
2019-06-27T17:09:30.720Z,2.35
2019-06-27T17:12:00.443Z,2.15
2019-06-27T17:14:30.301Z,2.52
2019-06-27T17:17:00.145Z,2.47
2019-06-27T17:19:30.009Z,2.37
2019-06-27T17:21:59.788Z,2.00
2019-06-27T17:24:29.698Z,2.42
2019-06-27T17:26:59.542Z,2.20
2019-06-27T17:29:29.300Z,2.17
2019-06-27T17:31:59.227Z,2.10
2019-06-27T17:34:29.158Z,1.85
2019-06-27T17:36:58.929Z,2.35
2019-06-27T17:39:28.820Z,2.60
2019-06-27T17:41:58.637Z,3.27
2019-06-27T17:44:28.467Z,2.80
2019-06-27T17:46:58.254Z,3.37
2019-06-27T17:49:28.068Z,2.37
2019-06-27T17:51:57.916Z,2.37
2019-06-27T17:54:27.658Z,2.08
2019-06-27T17:56:57.528Z,3.17
2019-06-27T17:59:27.391Z,3.47
2019-06-27T18:01:57.282Z,3.40
2019-06-27T18:04:27.089Z,2.50
2019-06-27T18:07:12.577Z,2.60
2019-06-27T18:09:28.451Z,3.55
2019-06-27T18:11:58.322Z,2.20
2019-06-27T18:14:28.176Z,2.20
2019-06-27T18:16:57.923Z,2.10
2019-06-27T18:19:27.726Z,1.75
2019-06-27T18:21:57.650Z,1.77
2019-06-27T18:24:27.510Z,2.02
2019-06-27T18:26:57.289Z,2.20
2019-06-27T18:29:27.054Z,1.87
2019-06-27T18:31:57.189Z,3.12
2019-06-27T18:34:27.133Z,2.75
2019-06-27T18:36:56.859Z,2.02
2019-06-27T18:39:26.729Z,1.98
2019-06-27T18:41:56.646Z,2.47
2019-06-27T18:44:26.502Z,2.22
2019-06-27T18:46:56.322Z,2.00
2019-06-27T18:49:27.194Z,2.83
2019-06-27T18:51:57.014Z,2.87
2019-06-27T18:54:26.759Z,3.42
2019-06-27T18:56:56.595Z,2.10
2019-06-27T18:59:26.373Z,1.80
2019-06-27T19:01:56.266Z,1.80
2019-06-27T19:04:26.107Z,2.20
2019-06-27T19:06:56.199Z,2.00
2019-06-27T19:09:26.113Z,1.82
2019-06-27T19:11:55.899Z,1.85
2019-06-27T19:14:25.698Z,1.50
2019-06-27T19:16:55.504Z,1.70
2019-06-27T19:19:28.078Z,1.90
2019-06-27T19:22:22.771Z,1.92
2019-06-27T19:25:11.986Z,1.77
2019-06-27T19:27:41.794Z,2.15
2019-06-27T19:30:11.818Z,1.80
2019-06-27T19:32:41.651Z,1.80
2019-06-27T19:35:11.497Z,1.95
2019-06-27T19:37:41.277Z,2.00
2019-06-27T19:40:11.574Z,1.85
2019-06-27T19:42:41.424Z,2.02
2019-06-27T19:45:11.435Z,1.85
2019-06-27T19:47:41.276Z,1.77
2019-06-27T19:50:11.561Z,2.10
2019-06-27T19:52:41.407Z,2.00
2019-06-27T19:55:11.362Z,2.30
2019-06-27T19:57:41.108Z,2.10
2019-06-27T20:00:11.151Z,2.00
2019-06-27T20:02:40.944Z,2.52
2019-06-27T20:05:10.904Z,1.92
2019-06-27T20:07:40.684Z,2.42
2019-06-27T20:10:11.880Z,2.67
2019-06-27T20:12:50.032Z,2.27
2019-06-27T20:15:23.261Z,2.20
2019-06-27T20:17:53.310Z,2.12
2019-06-27T20:20:23.399Z,1.87
2019-06-27T20:22:53.334Z,2.25
2019-06-27T20:25:24.278Z,2.22
2019-06-27T20:27:56.394Z,2.20
2019-06-27T20:30:28.111Z,1.70
2019-06-27T20:33:01.225Z,2.10
2019-06-27T20:35:32.730Z,2.22
2019-06-27T20:38:04.504Z,2.00
2019-06-27T20:40:34.343Z,1.90
2019-06-27T20:46:04.866Z,2.00
2019-06-27T20:51:35.468Z,2.20
2019-06-27T20:54:06.736Z,3.00
2019-06-27T20:56:36.678Z,2.35
2019-06-27T20:59:06.542Z,2.37
2019-06-27T21:01:36.557Z,3.72
2019-06-27T21:04:26.548Z,3.33
2019-06-27T21:07:45.244Z,2.33
2019-06-27T21:11:06.826Z,2.20
2019-06-27T21:14:25.505Z,3.42
2019-06-27T21:17:18.939Z,1.98
2019-06-27T21:51:31.276Z,2.17
2019-06-27T22:28:51.233Z,2.33
2019-06-27T22:34:32.580Z,2.33
2019-06-27T23:07:23.888Z,2.33
2019-06-27T23:15:49.775Z,2.33
2019-06-27T23:22:22.010Z,2.22
2019-06-27T23:25:04.626Z,2.02
2019-06-27T23:27:49.824Z,2.45
2019-06-27T23:30:52.298Z,2.00
2019-06-27T23:37:34.213Z,1.85
2019-06-27T23:43:55.491Z,2.40
2019-06-27T23:55:40.283Z,2.20
2019-06-27T23:58:51.270Z,2.40
